sensor_id;sensor_type;location;lat;lon;timestamp;pressure;altitude;pressure_sealevel;temperature;humidity
6038;BME280;3047;42.600;23.470;2022-09-30T00:00:18;92755.38;;;15.57;100.00
6038;BME280;3047;42.600;23.470;2022-09-30T00:02:45;92753.56;;;15.59;100.00
6038;BME280;3047;42.600;23.470;2022-09-30T00:05:12;92755.94;;;15.47;100.00
6038;BME280;3047;42.600;23.470;2022-09-30T00:07:38;92767.69;;;15.49;100.00
6038;BME280;3047;42.600;23.470;2022-09-30T00:10:05;92762.84;;;15.45;100.00
6038;BME280;3047;42.600;23.470;2022-09-30T00:12:32;92780.06;;;15.55;100.00
6038;BME280;3047;42.600;23.470;2022-09-30T00:14:59;92776.69;;;15.39;100.00
6038;BME280;3047;42.600;23.470;2022-09-30T00:17:27;92709.59;;;15.08;100.00
6038;BME280;3047;42.600;23.470;2022-09-30T00:19:54;92757.97;;;15.24;100.00
6038;BME280;3047;42.600;23.470;2022-09-30T00:22:21;92768.06;;;15.42;100.00
6038;BME280;3047;42.600;23.470;2022-09-30T00:24:47;92757.22;;;15.38;100.00
6038;BME280;3047;42.600;23.470;2022-09-30T00:27:15;92772.78;;;15.49;100.00
6038;BME280;3047;42.600;23.470;2022-09-30T00:29:42;92778.00;;;15.46;100.00
6038;BME280;3047;42.600;23.470;2022-09-30T00:32:09;92771.81;;;15.52;100.00
6038;BME280;3047;42.600;23.470;2022-09-30T00:34:37;92771.97;;;15.49;100.00
6038;BME280;3047;42.600;23.470;2022-09-30T00:37:04;92765.88;;;15.36;100.00
6038;BME280;3047;42.600;23.470;2022-09-30T00:39:33;92789.19;;;15.44;100.00
6038;BME280;3047;42.600;23.470;2022-09-30T00:42:03;92764.28;;;15.33;100.00
6038;BME280;3047;42.600;23.470;2022-09-30T00:44:48;92789.38;;;15.56;100.00
6038;BME280;3047;42.600;23.470;2022-09-30T00:47:41;92785.75;;;15.45;100.00
6038;BME280;3047;42.600;23.470;2022-09-30T00:50:16;92766.78;;;15.50;100.00
6038;BME280;3047;42.600;23.470;2022-09-30T00:52:47;92765.81;;;15.53;100.00
6038;BME280;3047;42.600;23.470;2022-09-30T00:55:29;92770.22;;;15.49;100.00
6038;BME280;3047;42.600;23.470;2022-09-30T00:57:58;92774.41;;;15.50;100.00
6038;BME280;3047;42.600;23.470;2022-09-30T01:00:27;92777.75;;;15.35;100.00
6038;BME280;3047;42.600;23.470;2022-09-30T01:02:54;92769.97;;;15.38;100.00
6038;BME280;3047;42.600;23.470;2022-09-30T01:05:24;92769.81;;;15.41;100.00
6038;BME280;3047;42.600;23.470;2022-09-30T01:07:52;92772.09;;;15.46;100.00
6038;BME280;3047;42.600;23.470;2022-09-30T01:10:21;92783.09;;;15.46;100.00
6038;BME280;3047;42.600;23.470;2022-09-30T01:12:48;92780.28;;;15.35;100.00
6038;BME280;3047;42.600;23.470;2022-09-30T01:15:15;92780.03;;;15.24;100.00
6038;BME280;3047;42.600;23.470;2022-09-30T01:17:48;92790.47;;;15.19;100.00
6038;BME280;3047;42.600;23.470;2022-09-30T01:20:40;92781.78;;;15.23;100.00
6038;BME280;3047;42.600;23.470;2022-09-30T01:23:33;92769.63;;;15.28;100.00
6038;BME280;3047;42.600;23.470;2022-09-30T01:26:33;92756.91;;;15.28;100.00
6038;BME280;3047;42.600;23.470;2022-09-30T01:29:27;92765.63;;;15.07;100.00
6038;BME280;3047;42.600;23.470;2022-09-30T01:32:14;92757.25;;;15.05;100.00
6038;BME280;3047;42.600;23.470;2022-09-30T01:34:50;92753.97;;;15.03;100.00
6038;BME280;3047;42.600;23.470;2022-09-30T01:37:24;92758.00;;;15.07;100.00
6038;BME280;3047;42.600;23.470;2022-09-30T01:39:59;92753.81;;;15.06;100.00
6038;BME280;3047;42.600;23.470;2022-09-30T01:42:36;92761.00;;;14.98;100.00
6038;BME280;3047;42.600;23.470;2022-09-30T01:45:08;92762.34;;;15.05;100.00
6038;BME280;3047;42.600;23.470;2022-09-30T01:47:42;92764.50;;;15.13;100.00
6038;BME280;3047;42.600;23.470;2022-09-30T01:50:15;92698.03;;;14.86;100.00
6038;BME280;3047;42.600;23.470;2022-09-30T01:52:48;92760.75;;;15.20;100.00
6038;BME280;3047;42.600;23.470;2022-09-30T01:55:21;92754.25;;;15.30;100.00
6038;BME280;3047;42.600;23.470;2022-09-30T01:57:55;92752.53;;;15.30;100.00
6038;BME280;3047;42.600;23.470;2022-09-30T02:00:23;92739.38;;;15.22;100.00
6038;BME280;3047;42.600;23.470;2022-09-30T02:02:54;92762.25;;;15.40;100.00
6038;BME280;3047;42.600;23.470;2022-09-30T02:05:26;92761.66;;;15.34;100.00
6038;BME280;3047;42.600;23.470;2022-09-30T02:07:57;92704.13;;;14.99;100.00
6038;BME280;3047;42.600;23.470;2022-09-30T02:10:29;92766.34;;;15.42;100.00
6038;BME280;3047;42.600;23.470;2022-09-30T02:13:05;92736.03;;;15.22;100.00
6038;BME280;3047;42.600;23.470;2022-09-30T02:15:38;92771.38;;;15.44;100.00
6038;BME280;3047;42.600;23.470;2022-09-30T02:18:12;92769.56;;;15.46;100.00
6038;BME280;3047;42.600;23.470;2022-09-30T02:20:42;92776.81;;;15.53;100.00
6038;BME280;3047;42.600;23.470;2022-09-30T02:23:11;92761.34;;;15.41;100.00
6038;BME280;3047;42.600;23.470;2022-09-30T02:25:43;92787.66;;;15.57;100.00
6038;BME280;3047;42.600;23.470;2022-09-30T02:28:15;92778.53;;;15.53;100.00
6038;BME280;3047;42.600;23.470;2022-09-30T02:30:44;92786.31;;;15.50;100.00
6038;BME280;3047;42.600;23.470;2022-09-30T02:33:18;92790.75;;;15.46;100.00
6038;BME280;3047;42.600;23.470;2022-09-30T02:35:48;92758.34;;;15.17;100.00
6038;BME280;3047;42.600;23.470;2022-09-30T02:38:19;92789.31;;;15.25;100.00
6038;BME280;3047;42.600;23.470;2022-09-30T02:40:49;92798.59;;;15.26;100.00
6038;BME280;3047;42.600;23.470;2022-09-30T02:43:18;92790.13;;;15.25;100.00
6038;BME280;3047;42.600;23.470;2022-09-30T02:45:50;92756.06;;;14.95;100.00
6038;BME280;3047;42.600;23.470;2022-09-30T02:48:27;92744.41;;;14.91;100.00
6038;BME280;3047;42.600;23.470;2022-09-30T02:51:00;92778.41;;;15.05;100.00
6038;BME280;3047;42.600;23.470;2022-09-30T02:53:32;92775.44;;;14.97;100.00
6038;BME280;3047;42.600;23.470;2022-09-30T02:56:11;92766.22;;;14.95;100.00
6038;BME280;3047;42.600;23.470;2022-09-30T02:58:41;92760.94;;;14.99;100.00
6038;BME280;3047;42.600;23.470;2022-09-30T03:01:10;92774.09;;;15.07;100.00
6038;BME280;3047;42.600;23.470;2022-09-30T03:03:41;92769.72;;;15.09;100.00
6038;BME280;3047;42.600;23.470;2022-09-30T03:06:10;92760.41;;;14.93;100.00
6038;BME280;3047;42.600;23.470;2022-09-30T03:08:37;92781.19;;;15.01;100.00
6038;BME280;3047;42.600;23.470;2022-09-30T03:11:04;92773.66;;;14.99;100.00
6038;BME280;3047;42.600;23.470;2022-09-30T03:16:32;92788.81;;;15.01;100.00
6038;BME280;3047;42.600;23.470;2022-09-30T03:19:18;92790.31;;;15.05;100.00
6038;BME280;3047;42.600;23.470;2022-09-30T03:21:58;92791.66;;;15.12;100.00
6038;BME280;3047;42.600;23.470;2022-09-30T03:24:47;92798.28;;;15.15;100.00
6038;BME280;3047;42.600;23.470;2022-09-30T03:27:24;92800.31;;;15.25;100.00
6038;BME280;3047;42.600;23.470;2022-09-30T03:30:00;92797.09;;;15.22;100.00
6038;BME280;3047;42.600;23.470;2022-09-30T03:32:38;92809.97;;;15.19;100.00
6038;BME280;3047;42.600;23.470;2022-09-30T03:35:16;92814.41;;;15.15;100.00
6038;BME280;3047;42.600;23.470;2022-09-30T03:37:51;92811.34;;;15.08;100.00
6038;BME280;3047;42.600;23.470;2022-09-30T03:40:28;92795.56;;;15.02;100.00
6038;BME280;3047;42.600;23.470;2022-09-30T03:42:59;92798.41;;;14.96;100.00
6038;BME280;3047;42.600;23.470;2022-09-30T03:45:30;92803.06;;;14.88;100.00
6038;BME280;3047;42.600;23.470;2022-09-30T03:48:03;92811.97;;;14.79;100.00
6038;BME280;3047;42.600;23.470;2022-09-30T03:50:33;92812.94;;;14.76;100.00
6038;BME280;3047;42.600;23.470;2022-09-30T03:53:01;92788.25;;;14.61;100.00
6038;BME280;3047;42.600;23.470;2022-09-30T03:55:29;92785.78;;;14.59;100.00
6038;BME280;3047;42.600;23.470;2022-09-30T03:57:57;92807.31;;;14.70;100.00
6038;BME280;3047;42.600;23.470;2022-09-30T04:00:24;92791.38;;;14.49;100.00
6038;BME280;3047;42.600;23.470;2022-09-30T04:02:51;92807.84;;;14.59;100.00
6038;BME280;3047;42.600;23.470;2022-09-30T04:05:17;92825.19;;;14.51;100.00
6038;BME280;3047;42.600;23.470;2022-09-30T04:07:46;92812.75;;;14.62;100.00
6038;BME280;3047;42.600;23.470;2022-09-30T04:10:13;92810.66;;;14.70;100.00
6038;BME280;3047;42.600;23.470;2022-09-30T04:12:39;92811.28;;;14.75;100.00
6038;BME280;3047;42.600;23.470;2022-09-30T04:15:07;92824.50;;;14.82;100.00
6038;BME280;3047;42.600;23.470;2022-09-30T04:17:34;92821.97;;;14.82;100.00
6038;BME280;3047;42.600;23.470;2022-09-30T04:20:00;92821.72;;;14.87;100.00
6038;BME280;3047;42.600;23.470;2022-09-30T04:22:27;92807.53;;;14.82;100.00
6038;BME280;3047;42.600;23.470;2022-09-30T04:24:55;92811.88;;;14.98;100.00
6038;BME280;3047;42.600;23.470;2022-09-30T04:27:22;92812.19;;;14.92;100.00
6038;BME280;3047;42.600;23.470;2022-09-30T04:29:48;92829.59;;;14.99;100.00
6038;BME280;3047;42.600;23.470;2022-09-30T04:32:15;92831.09;;;15.03;100.00
6038;BME280;3047;42.600;23.470;2022-09-30T04:34:42;92827.94;;;15.16;100.00
6038;BME280;3047;42.600;23.470;2022-09-30T04:37:08;92830.72;;;15.11;100.00
6038;BME280;3047;42.600;23.470;2022-09-30T04:39:35;92834.38;;;15.05;100.00
6038;BME280;3047;42.600;23.470;2022-09-30T04:42:03;92836.13;;;14.88;100.00
6038;BME280;3047;42.600;23.470;2022-09-30T04:44:30;92826.00;;;14.86;100.00
6038;BME280;3047;42.600;23.470;2022-09-30T04:46:57;92838.94;;;14.81;100.00
6038;BME280;3047;42.600;23.470;2022-09-30T04:49:25;92831.91;;;14.69;100.00
6038;BME280;3047;42.600;23.470;2022-09-30T04:51:51;92837.97;;;14.84;100.00
6038;BME280;3047;42.600;23.470;2022-09-30T04:54:18;92847.25;;;15.02;100.00
6038;BME280;3047;42.600;23.470;2022-09-30T04:56:45;92848.78;;;15.40;100.00
6038;BME280;3047;42.600;23.470;2022-09-30T04:59:13;92868.97;;;15.43;100.00
6038;BME280;3047;42.600;23.470;2022-09-30T05:01:39;92878.72;;;15.52;100.00
6038;BME280;3047;42.600;23.470;2022-09-30T05:04:07;92835.25;;;15.22;100.00
6038;BME280;3047;42.600;23.470;2022-09-30T05:06:34;92872.53;;;15.40;100.00
6038;BME280;3047;42.600;23.470;2022-09-30T05:09:01;92885.63;;;15.32;100.00
6038;BME280;3047;42.600;23.470;2022-09-30T05:11:28;92887.63;;;15.26;100.00
6038;BME280;3047;42.600;23.470;2022-09-30T05:13:54;92857.28;;;15.05;100.00
6038;BME280;3047;42.600;23.470;2022-09-30T05:16:22;92876.13;;;15.01;100.00
6038;BME280;3047;42.600;23.470;2022-09-30T05:18:52;92875.97;;;15.04;100.00
6038;BME280;3047;42.600;23.470;2022-09-30T05:21:19;92878.22;;;14.93;100.00
6038;BME280;3047;42.600;23.470;2022-09-30T05:23:46;92871.41;;;14.94;100.00
6038;BME280;3047;42.600;23.470;2022-09-30T05:26:13;92870.75;;;15.07;100.00
6038;BME280;3047;42.600;23.470;2022-09-30T05:28:39;92885.03;;;15.27;100.00
6038;BME280;3047;42.600;23.470;2022-09-30T05:31:06;92884.19;;;15.44;100.00
6038;BME280;3047;42.600;23.470;2022-09-30T05:33:34;92898.84;;;15.39;100.00
6038;BME280;3047;42.600;23.470;2022-09-30T05:36:04;92874.38;;;15.37;100.00
6038;BME280;3047;42.600;23.470;2022-09-30T05:38:32;92879.69;;;15.49;100.00
6038;BME280;3047;42.600;23.470;2022-09-30T05:41:05;92895.06;;;15.81;100.00
6038;BME280;3047;42.600;23.470;2022-09-30T05:43:32;92913.41;;;16.03;100.00
6038;BME280;3047;42.600;23.470;2022-09-30T05:45:59;92901.44;;;16.05;100.00
6038;BME280;3047;42.600;23.470;2022-09-30T05:48:26;92917.22;;;15.96;100.00
6038;BME280;3047;42.600;23.470;2022-09-30T05:50:54;92917.19;;;15.80;100.00
6038;BME280;3047;42.600;23.470;2022-09-30T05:53:22;92915.94;;;15.72;100.00
6038;BME280;3047;42.600;23.470;2022-09-30T05:55:49;92898.84;;;15.56;100.00
6038;BME280;3047;42.600;23.470;2022-09-30T05:58:16;92911.47;;;15.75;100.00
6038;BME280;3047;42.600;23.470;2022-09-30T06:00:44;92892.94;;;15.56;100.00
6038;BME280;3047;42.600;23.470;2022-09-30T06:03:11;92904.25;;;15.68;100.00
6038;BME280;3047;42.600;23.470;2022-09-30T06:05:38;92910.25;;;15.82;100.00
6038;BME280;3047;42.600;23.470;2022-09-30T06:08:06;92936.59;;;15.99;100.00
6038;BME280;3047;42.600;23.470;2022-09-30T06:10:34;92940.13;;;15.96;100.00
6038;BME280;3047;42.600;23.470;2022-09-30T06:13:02;92922.56;;;15.74;100.00
6038;BME280;3047;42.600;23.470;2022-09-30T06:15:29;92935.38;;;15.73;100.00
6038;BME280;3047;42.600;23.470;2022-09-30T06:17:55;92942.22;;;15.72;100.00
6038;BME280;3047;42.600;23.470;2022-09-30T06:20:22;92947.59;;;15.66;100.00
6038;BME280;3047;42.600;23.470;2022-09-30T06:22:49;92951.03;;;15.65;100.00
6038;BME280;3047;42.600;23.470;2022-09-30T06:25:17;92935.81;;;15.64;100.00
6038;BME280;3047;42.600;23.470;2022-09-30T06:27:44;92922.34;;;15.62;100.00
6038;BME280;3047;42.600;23.470;2022-09-30T06:30:12;92927.56;;;15.58;100.00
6038;BME280;3047;42.600;23.470;2022-09-30T06:32:39;92918.63;;;15.69;100.00
6038;BME280;3047;42.600;23.470;2022-09-30T06:35:07;92924.34;;;15.55;100.00
6038;BME280;3047;42.600;23.470;2022-09-30T06:37:34;92942.03;;;15.58;100.00
6038;BME280;3047;42.600;23.470;2022-09-30T06:40:02;92930.06;;;15.43;100.00
6038;BME280;3047;42.600;23.470;2022-09-30T06:42:30;92942.19;;;15.55;100.00
6038;BME280;3047;42.600;23.470;2022-09-30T06:44:57;92933.03;;;15.51;100.00
6038;BME280;3047;42.600;23.470;2022-09-30T06:47:24;92948.63;;;15.62;100.00
6038;BME280;3047;42.600;23.470;2022-09-30T06:49:50;92952.78;;;15.65;100.00
6038;BME280;3047;42.600;23.470;2022-09-30T06:52:22;92875.00;;;15.24;100.00
6038;BME280;3047;42.600;23.470;2022-09-30T06:54:49;92938.34;;;15.64;100.00
6038;BME280;3047;42.600;23.470;2022-09-30T06:57:16;92926.09;;;15.54;100.00
6038;BME280;3047;42.600;23.470;2022-09-30T06:59:48;92927.00;;;15.53;100.00
6038;BME280;3047;42.600;23.470;2022-09-30T07:02:15;92976.94;;;15.73;100.00
6038;BME280;3047;42.600;23.470;2022-09-30T07:04:42;92976.94;;;15.73;100.00
6038;BME280;3047;42.600;23.470;2022-09-30T07:07:08;92977.09;;;15.70;100.00
6038;BME280;3047;42.600;23.470;2022-09-30T07:09:35;92977.91;;;15.71;100.00
6038;BME280;3047;42.600;23.470;2022-09-30T07:12:02;92966.84;;;15.72;100.00
6038;BME280;3047;42.600;23.470;2022-09-30T07:14:29;92973.66;;;15.71;100.00
6038;BME280;3047;42.600;23.470;2022-09-30T07:16:58;92935.88;;;15.62;100.00
6038;BME280;3047;42.600;23.470;2022-09-30T07:19:28;92935.53;;;15.52;100.00
6038;BME280;3047;42.600;23.470;2022-09-30T07:21:55;92988.00;;;15.90;100.00
6038;BME280;3047;42.600;23.470;2022-09-30T07:24:41;92998.13;;;15.91;100.00
6038;BME280;3047;42.600;23.470;2022-09-30T07:27:08;92991.97;;;15.95;100.00
6038;BME280;3047;42.600;23.470;2022-09-30T07:29:35;93001.88;;;16.01;100.00
6038;BME280;3047;42.600;23.470;2022-09-30T07:32:03;93016.75;;;16.09;100.00
6038;BME280;3047;42.600;23.470;2022-09-30T07:34:29;93031.00;;;16.13;100.00
6038;BME280;3047;42.600;23.470;2022-09-30T07:36:56;93029.69;;;16.22;100.00
6038;BME280;3047;42.600;23.470;2022-09-30T07:39:23;93031.78;;;16.31;100.00
6038;BME280;3047;42.600;23.470;2022-09-30T07:41:52;93017.25;;;16.33;100.00
6038;BME280;3047;42.600;23.470;2022-09-30T07:44:19;93028.53;;;16.45;100.00
6038;BME280;3047;42.600;23.470;2022-09-30T07:46:45;93020.03;;;16.44;100.00
6038;BME280;3047;42.600;23.470;2022-09-30T07:49:15;93020.06;;;16.60;100.00
6038;BME280;3047;42.600;23.470;2022-09-30T07:51:48;93031.31;;;16.73;100.00
6038;BME280;3047;42.600;23.470;2022-09-30T07:54:19;93027.09;;;16.88;100.00
6038;BME280;3047;42.600;23.470;2022-09-30T07:56:48;93024.22;;;17.10;100.00
6038;BME280;3047;42.600;23.470;2022-09-30T07:59:16;93029.13;;;17.29;100.00
6038;BME280;3047;42.600;23.470;2022-09-30T08:01:43;93010.41;;;17.44;100.00
6038;BME280;3047;42.600;23.470;2022-09-30T08:04:11;93027.41;;;17.75;100.00
6038;BME280;3047;42.600;23.470;2022-09-30T08:06:42;93015.41;;;17.92;100.00
6038;BME280;3047;42.600;23.470;2022-09-30T08:09:10;93049.97;;;18.27;100.00
6038;BME280;3047;42.600;23.470;2022-09-30T08:11:37;93054.53;;;18.37;100.00
6038;BME280;3047;42.600;23.470;2022-09-30T08:14:06;93065.75;;;18.34;100.00
6038;BME280;3047;42.600;23.470;2022-09-30T08:16:32;93035.09;;;18.20;100.00
6038;BME280;3047;42.600;23.470;2022-09-30T08:19:00;93044.59;;;18.32;100.00
6038;BME280;3047;42.600;23.470;2022-09-30T08:21:28;93059.66;;;18.37;100.00
6038;BME280;3047;42.600;23.470;2022-09-30T08:23:56;93063.56;;;18.42;100.00
6038;BME280;3047;42.600;23.470;2022-09-30T08:26:23;93058.19;;;18.33;100.00
6038;BME280;3047;42.600;23.470;2022-09-30T08:28:50;93064.22;;;18.32;100.00
6038;BME280;3047;42.600;23.470;2022-09-30T08:31:18;93007.94;;;18.03;100.00
6038;BME280;3047;42.600;23.470;2022-09-30T08:33:45;93077.09;;;18.44;100.00
6038;BME280;3047;42.600;23.470;2022-09-30T08:36:14;93053.34;;;18.28;100.00
6038;BME280;3047;42.600;23.470;2022-09-30T08:38:41;93027.47;;;18.18;100.00
6038;BME280;3047;42.600;23.470;2022-09-30T08:41:22;93079.31;;;18.65;100.00
6038;BME280;3047;42.600;23.470;2022-09-30T08:44:02;93091.00;;;18.69;100.00
6038;BME280;3047;42.600;23.470;2022-09-30T08:46:38;93087.47;;;18.86;100.00
6038;BME280;3047;42.600;23.470;2022-09-30T08:49:19;93087.72;;;18.95;100.00
6038;BME280;3047;42.600;23.470;2022-09-30T08:51:50;93060.13;;;18.86;100.00
6038;BME280;3047;42.600;23.470;2022-09-30T08:54:22;93094.22;;;19.01;100.00
6038;BME280;3047;42.600;23.470;2022-09-30T08:56:52;93093.84;;;19.07;100.00
6038;BME280;3047;42.600;23.470;2022-09-30T08:59:27;93095.56;;;19.07;100.00
6038;BME280;3047;42.600;23.470;2022-09-30T09:02:00;93104.72;;;19.11;100.00
6038;BME280;3047;42.600;23.470;2022-09-30T09:04:28;93092.19;;;19.20;100.00
6038;BME280;3047;42.600;23.470;2022-09-30T09:06:57;93090.97;;;19.12;100.00
6038;BME280;3047;42.600;23.470;2022-09-30T09:09:39;93100.28;;;19.27;100.00
6038;BME280;3047;42.600;23.470;2022-09-30T09:12:24;93094.50;;;19.38;100.00
6038;BME280;3047;42.600;23.470;2022-09-30T09:15:06;93066.84;;;19.16;100.00
6038;BME280;3047;42.600;23.470;2022-09-30T09:17:52;93118.38;;;19.38;100.00
6038;BME280;3047;42.600;23.470;2022-09-30T09:20:29;93109.00;;;19.51;100.00
6038;BME280;3047;42.600;23.470;2022-09-30T09:23:00;93112.69;;;19.47;100.00
6038;BME280;3047;42.600;23.470;2022-09-30T09:25:28;93107.38;;;19.50;100.00
6038;BME280;3047;42.600;23.470;2022-09-30T09:27:58;93113.78;;;19.58;100.00
6038;BME280;3047;42.600;23.470;2022-09-30T09:30:28;93109.00;;;19.66;100.00
6038;BME280;3047;42.600;23.470;2022-09-30T09:33:17;93116.00;;;19.76;100.00
6038;BME280;3047;42.600;23.470;2022-09-30T09:35:51;93098.00;;;19.78;100.00
6038;BME280;3047;42.600;23.470;2022-09-30T09:38:25;93120.69;;;19.97;100.00
6038;BME280;3047;42.600;23.470;2022-09-30T09:41:11;93114.25;;;20.04;100.00
6038;BME280;3047;42.600;23.470;2022-09-30T09:43:50;93110.25;;;20.13;100.00
6038;BME280;3047;42.600;23.470;2022-09-30T09:46:26;93104.50;;;20.09;100.00
6038;BME280;3047;42.600;23.470;2022-09-30T09:49:27;93115.94;;;20.18;100.00
6038;BME280;3047;42.600;23.470;2022-09-30T09:52:04;93119.75;;;20.38;100.00
6038;BME280;3047;42.600;23.470;2022-09-30T09:54:40;93099.69;;;20.17;100.00
6038;BME280;3047;42.600;23.470;2022-09-30T09:57:08;93131.34;;;20.43;100.00
6038;BME280;3047;42.600;23.470;2022-09-30T09:59:37;93106.72;;;20.41;90.58
6038;BME280;3047;42.600;23.470;2022-09-30T10:02:21;93133.16;;;20.81;100.00
6038;BME280;3047;42.600;23.470;2022-09-30T10:04:49;93131.31;;;20.83;98.74
6038;BME280;3047;42.600;23.470;2022-09-30T10:07:24;93110.03;;;20.94;100.00
6038;BME280;3047;42.600;23.470;2022-09-30T10:10:06;93092.38;;;20.89;100.00
6038;BME280;3047;42.600;23.470;2022-09-30T10:12:33;93117.19;;;21.14;100.00
6038;BME280;3047;42.600;23.470;2022-09-30T10:15:14;93110.63;;;21.36;100.00
6038;BME280;3047;42.600;23.470;2022-09-30T10:17:50;93091.97;;;21.45;98.17
6038;BME280;3047;42.600;23.470;2022-09-30T10:20:23;93116.97;;;21.67;97.83
6038;BME280;3047;42.600;23.470;2022-09-30T10:22:59;93136.03;;;21.88;85.15
6038;BME280;3047;42.600;23.470;2022-09-30T10:25:26;93116.81;;;22.05;78.07
6038;BME280;3047;42.600;23.470;2022-09-30T10:27:56;93107.47;;;22.39;77.44
6038;BME280;3047;42.600;23.470;2022-09-30T10:30:37;93101.00;;;22.69;79.67
6038;BME280;3047;42.600;23.470;2022-09-30T10:33:12;93099.34;;;22.79;75.18
6038;BME280;3047;42.600;23.470;2022-09-30T10:35:49;93095.88;;;23.03;75.43
6038;BME280;3047;42.600;23.470;2022-09-30T10:38:18;93080.66;;;23.22;76.54
6038;BME280;3047;42.600;23.470;2022-09-30T10:40:47;93096.94;;;23.23;69.84
6038;BME280;3047;42.600;23.470;2022-09-30T10:43:19;93098.56;;;23.35;75.10
6038;BME280;3047;42.600;23.470;2022-09-30T10:45:48;93097.81;;;23.55;66.99
6038;BME280;3047;42.600;23.470;2022-09-30T10:48:18;93097.56;;;23.69;65.98
6038;BME280;3047;42.600;23.470;2022-09-30T10:50:49;93091.00;;;23.77;64.24
6038;BME280;3047;42.600;23.470;2022-09-30T10:53:20;93095.75;;;23.92;68.38
6038;BME280;3047;42.600;23.470;2022-09-30T10:55:49;93106.41;;;23.99;63.42
6038;BME280;3047;42.600;23.470;2022-09-30T10:58:27;93097.63;;;24.23;64.01
6038;BME280;3047;42.600;23.470;2022-09-30T11:00:59;93102.66;;;24.24;60.21
6038;BME280;3047;42.600;23.470;2022-09-30T11:03:34;93104.13;;;24.38;62.98
6038;BME280;3047;42.600;23.470;2022-09-30T11:06:04;93076.66;;;24.37;59.38
6038;BME280;3047;42.600;23.470;2022-09-30T11:08:36;93095.09;;;24.64;59.34
6038;BME280;3047;42.600;23.470;2022-09-30T11:11:10;93095.53;;;24.79;61.33
6038;BME280;3047;42.600;23.470;2022-09-30T11:13:42;93101.84;;;24.86;61.51
6038;BME280;3047;42.600;23.470;2022-09-30T11:16:20;93095.00;;;25.06;64.45
6038;BME280;3047;42.600;23.470;2022-09-30T11:18:54;93099.97;;;25.19;60.09
6038;BME280;3047;42.600;23.470;2022-09-30T11:21:27;93098.53;;;25.36;66.86
6038;BME280;3047;42.600;23.470;2022-09-30T11:23:59;93094.97;;;25.27;55.95
6038;BME280;3047;42.600;23.470;2022-09-30T11:26:37;93085.34;;;25.39;65.48
6038;BME280;3047;42.600;23.470;2022-09-30T11:29:24;93085.91;;;25.43;63.72
6038;BME280;3047;42.600;23.470;2022-09-30T11:32:02;93096.00;;;25.46;63.83
6038;BME280;3047;42.600;23.470;2022-09-30T11:34:42;93093.00;;;25.50;63.99
6038;BME280;3047;42.600;23.470;2022-09-30T11:37:22;93094.47;;;25.43;64.66
6038;BME280;3047;42.600;23.470;2022-09-30T11:40:10;93079.75;;;25.24;62.58
6038;BME280;3047;42.600;23.470;2022-09-30T11:42:46;93093.66;;;25.43;66.80
6038;BME280;3047;42.600;23.470;2022-09-30T11:45:22;93093.72;;;25.52;63.92
6038;BME280;3047;42.600;23.470;2022-09-30T11:48:10;93053.50;;;25.29;61.20
6038;BME280;3047;42.600;23.470;2022-09-30T11:50:51;93100.22;;;25.47;58.24
6038;BME280;3047;42.600;23.470;2022-09-30T11:53:32;93031.34;;;25.05;60.43
6038;BME280;3047;42.600;23.470;2022-09-30T11:56:09;93105.78;;;25.42;59.97
6038;BME280;3047;42.600;23.470;2022-09-30T11:58:43;93112.97;;;25.38;58.75
6038;BME280;3047;42.600;23.470;2022-09-30T12:01:29;93106.53;;;25.23;60.45
6038;BME280;3047;42.600;23.470;2022-09-30T12:04:03;93052.03;;;24.75;60.94
6038;BME280;3047;42.600;23.470;2022-09-30T12:06:34;93111.31;;;25.07;61.48
6038;BME280;3047;42.600;23.470;2022-09-30T12:09:07;93109.38;;;24.99;60.73
6038;BME280;3047;42.600;23.470;2022-09-30T12:11:43;93104.31;;;24.88;60.84
6038;BME280;3047;42.600;23.470;2022-09-30T12:14:17;93110.94;;;24.81;62.58
6038;BME280;3047;42.600;23.470;2022-09-30T12:16:46;93117.16;;;24.78;62.52
6038;BME280;3047;42.600;23.470;2022-09-30T12:19:20;93118.63;;;24.92;62.81
6038;BME280;3047;42.600;23.470;2022-09-30T12:21:53;93117.59;;;25.04;61.02
6038;BME280;3047;42.600;23.470;2022-09-30T12:24:28;93120.63;;;25.09;65.44
6038;BME280;3047;42.600;23.470;2022-09-30T12:26:57;93123.63;;;25.14;64.34
6038;BME280;3047;42.600;23.470;2022-09-30T12:29:27;93126.16;;;25.26;61.22
6038;BME280;3047;42.600;23.470;2022-09-30T12:35:40;93118.47;;;25.45;63.07
6038;BME280;3047;42.600;23.470;2022-09-30T12:38:32;93127.19;;;25.54;56.15
6038;BME280;3047;42.600;23.470;2022-09-30T12:41:14;93133.19;;;25.64;56.38
6038;BME280;3047;42.600;23.470;2022-09-30T12:47:04;93091.78;;;25.54;53.85
6038;BME280;3047;42.600;23.470;2022-09-30T12:49:38;93137.03;;;25.70;54.22
6038;BME280;3047;42.600;23.470;2022-09-30T12:52:13;93129.53;;;25.67;52.00
6038;BME280;3047;42.600;23.470;2022-09-30T12:54:42;93076.38;;;25.33;54.19
6038;BME280;3047;42.600;23.470;2022-09-30T12:57:17;93134.03;;;25.64;53.88
6038;BME280;3047;42.600;23.470;2022-09-30T12:59:50;93140.97;;;25.64;54.08
6038;BME280;3047;42.600;23.470;2022-09-30T13:02:29;93142.72;;;25.63;50.86
6038;BME280;3047;42.600;23.470;2022-09-30T13:11:04;93146.44;;;25.71;54.08
6038;BME280;3047;42.600;23.470;2022-09-30T13:13:32;93142.31;;;25.68;54.59
6038;BME280;3047;42.600;23.470;2022-09-30T13:16:02;93116.84;;;25.54;48.29
6038;BME280;3047;42.600;23.470;2022-09-30T13:18:59;93121.88;;;25.55;52.05
6038;BME280;3047;42.600;23.470;2022-09-30T13:21:26;93134.94;;;25.54;48.74
6038;BME280;3047;42.600;23.470;2022-09-30T13:23:55;93133.72;;;25.48;49.10
6038;BME280;3047;42.600;23.470;2022-09-30T13:26:45;93128.91;;;25.44;50.98
6038;BME280;3047;42.600;23.470;2022-09-30T13:29:35;93132.44;;;25.33;51.88
6038;BME280;3047;42.600;23.470;2022-09-30T13:32:30;93133.25;;;25.33;52.79
6038;BME280;3047;42.600;23.470;2022-09-30T13:34:57;93139.75;;;25.28;50.35
6038;BME280;3047;42.600;23.470;2022-09-30T13:37:37;93133.91;;;25.26;49.33
6038;BME280;3047;42.600;23.470;2022-09-30T13:40:14;93134.16;;;25.23;51.80
6038;BME280;3047;42.600;23.470;2022-09-30T13:42:50;93142.47;;;25.26;54.80